This is the latest recevied weather packets stored in our database for station/object K5FEP. If no packets are shown the sender has not sent any weather packets the latest 1 day(s).
| Time | Temp. | Humidity | Pressure | Rain* | Wind** | Luminosity | Snow |
|---|---|---|---|---|---|---|---|
| 1778002383 | 27.22° C | 30% | 1014.1 hPa | 0 mm | 2.68 m/s, 93° | 977 W/m² | - |
| 1778002091 | 26.67° C | 32% | 1013.9 hPa | 0 mm | 1.34 m/s, 62° | 983 W/m² | - |
| 1778001777 | 26.67° C | 30% | 1014.1 hPa | 0 mm | 2.68 m/s, 91° | 979 W/m² | - |
| 1778001472 | 26.67° C | 31% | 1014.1 hPa | 0 mm | 2.24 m/s, 39° | 990 W/m² | - |
| 1778001169 | 27.78° C | 32% | 1014.3 hPa | 0 mm | 0.89 m/s, 328° | 988 W/m² | - |
| 1778000866 | 27.22° C | 31% | 1014.3 hPa | 0 mm | 0.45 m/s, 297° | 996 W/m² | - |
| 1778000563 | 26.67° C | 34% | 1014.4 hPa | 0 mm | 2.24 m/s, 43° | 991 W/m² | - |
| 1778000258 | 26.67° C | 31% | 1014.5 hPa | 0 mm | 2.24 m/s, 47° | 988 W/m² | - |
| 1777999954 | 27.22° C | 32% | 1014.5 hPa | 0 mm | 2.24 m/s, 31° | 989 W/m² | - |
| 1777999650 | 27.22° C | 34% | 1014.6 hPa | 0 mm | 1.34 m/s, 99° | 972 W/m² | - |
| 1777999347 | 26.67° C | 34% | 1014.6 hPa | 0 mm | 0.89 m/s, 68° | 950 W/m² | - |
| 1777999045 | 26.11° C | 35% | 1014.6 hPa | 0 mm | 0.45 m/s, 263° | 914 W/m² | - |
| 1777998744 | 26.11° C | 34% | 1014.7 hPa | 0 mm | 3.13 m/s, 31° | 889 W/m² | - |
| 1777998441 | 26.11° C | 36% | 1014.5 hPa | 0 mm | 2.24 m/s, 20° | 922 W/m² | - |
| 1777998138 | 25.56° C | 37% | 1014.9 hPa | 0 mm | 0.89 m/s, 11° | 954 W/m² | - |
| 1777997834 | 25° C | 36% | 1015 hPa | 0 mm | 0.89 m/s, 55° | 961 W/m² | - |
| 1777997532 | 25.56° C | 36% | 1014.9 hPa | 0 mm | 1.79 m/s, 59° | 941 W/m² | - |
| 1777997230 | 25° C | 39% | 1015 hPa | 0 mm | 3.13 m/s, 99° | 921 W/m² | - |
| 1777996927 | 25.56° C | 38% | 1015 hPa | 0 mm | 1.79 m/s, 61° | 873 W/m² | - |
| 1777996623 | 25.56° C | 39% | 1015 hPa | 0 mm | 0.89 m/s, 178° | 887 W/m² | - |
| 1777996319 | 25.56° C | 38% | 1015 hPa | 0 mm | 1.34 m/s, 77° | 925 W/m² | - |
| 1777996016 | 25° C | 38% | 1015.1 hPa | 0 mm | 1.79 m/s, 75° | 934 W/m² | - |
| 1777995712 | 25° C | 39% | 1015.1 hPa | 0 mm | 0.89 m/s, 120° | 916 W/m² | - |
| 1777995409 | 25° C | 38% | 1015.2 hPa | 0 mm | 2.24 m/s, 47° | 907 W/m² | - |
| 1777995106 | 24.44° C | 42% | 1015 hPa | 0 mm | 0.89 m/s, 21° | 900 W/m² | - |
* Rain latest hour (hover to see other rain measurements)
** Current wind speed in m/s (hover to see current wind gust speed)